Time;durP1;ratioP1;P1;durP2;ratioP2;P2;SDS_P1;SDS_P2;PMS_P1;PMS_P2;Temp;Humidity;BMP_temperature;BMP_pressure;BME280_temperature;BME280_humidity;BME280_pressure;Samples;Min_cycle;Max_cycle;Signal;HPM_P1;HPM_P2
2022/03/22 00:00:45;;;;;;;14.20;12.70;;;;;;;7.54;39.18;102929.22;4967432;28;20101;-82
2022/03/22 00:03:11;;;;;;;13.90;12.55;;;;;;;8.61;38.01;103088.13;4967402;28;20059;-82
2022/03/22 00:05:40;;;;;;;13.98;12.48;;;;;;;8.63;39.12;103106.59;4968356;28;20109;-82
2022/03/22 00:08:07;;;;;;;14.27;12.60;;;;;;;8.42;39.24;103081.84;4967216;28;20070;-83
2022/03/22 00:10:34;;;;;;;14.30;12.80;;;;;;;8.21;39.27;103063.25;4967645;28;20043;-83
2022/03/22 00:13:02;;;;;;;18.58;12.13;;;;;;;8.32;39.90;103092.75;4967515;28;20050;-83
2022/03/22 00:15:28;;;;;;;14.70;12.75;;;;;;;8.35;39.55;103105.91;4967053;28;20549;-81
2022/03/22 00:18:18;;;;;;;12.55;11.25;;;;;;;8.12;39.82;103069.75;4986701;28;20359;-83
2022/03/22 00:20:45;;;;;;;13.07;11.77;;;;;;;8.09;40.09;103082.25;4987360;28;20054;-82
2022/03/22 00:23:13;;;;;;;13.35;11.82;;;;;;;7.61;39.16;102996.78;4989233;28;20054;-81
2022/03/22 00:25:39;;;;;;;14.20;12.80;;;;;;;7.96;39.79;103057.16;4991697;28;20089;-83
2022/03/22 00:28:06;;;;;;;13.63;12.23;;;;;;;8.16;40.25;103090.81;4990959;28;20050;-82
2022/03/22 00:30:35;;;;;;;13.10;11.70;;;;;;;7.69;39.05;102996.50;4988115;28;20050;-82
2022/03/22 00:33:04;;;;;;;16.83;12.48;;;;;;;7.00;40.23;102881.06;4987894;28;20152;-83
2022/03/22 00:35:35;;;;;;;13.85;11.82;;;;;;;8.21;40.06;103100.28;4986587;28;20057;-82
2022/03/22 00:38:08;;;;;;;14.98;12.00;;;;;;;8.06;40.23;103080.59;4986305;28;20447;-82
2022/03/22 00:40:35;;;;;;;14.88;12.32;;;;;;;7.86;40.04;103057.56;4986210;28;20854;-82
2022/03/22 00:43:02;;;;;;;14.05;12.52;;;;;;;8.08;40.74;103097.25;4986441;28;20133;-82
2022/03/22 00:45:34;;;;;;;13.73;11.90;;;;;;;7.62;40.81;103035.53;4986469;28;20491;-83
2022/03/22 00:48:03;;;;;;;16.58;12.45;;;;;;;7.88;40.46;103076.84;4986892;28;20062;-82
2022/03/22 00:50:33;;;;;;;14.05;11.77;;;;;;;7.84;40.14;103075.25;4986409;28;20081;-82
2022/03/22 00:53:01;;;;;;;14.68;11.60;;;;;;;8.04;40.13;103092.16;4987022;28;20492;-82
2022/03/22 00:55:27;;;;;;;12.52;11.23;;;;;;;7.81;40.49;103061.28;4986484;28;20498;-82
2022/03/22 00:57:55;;;;;;;19.95;13.05;;;;;;;7.99;40.81;103104.69;4988227;28;20739;-82
2022/03/22 01:00:26;;;;;;;14.52;12.15;;;;;;;7.92;40.79;103104.91;4987352;28;20104;-81
2022/03/22 01:02:55;;;;;;;15.05;11.77;;;;;;;7.79;40.47;103082.50;4987488;28;20055;-82
2022/03/22 01:05:23;;;;;;;14.48;12.23;;;;;;;8.06;40.06;103103.53;4986604;28;20062;-83
2022/03/22 01:07:55;;;;;;;16.50;12.63;;;;;;;8.09;38.92;103063.72;4987919;28;20145;-82
2022/03/22 01:10:24;;;;;;;17.13;12.65;;;;;;;8.21;39.48;103100.28;4991685;28;20054;-82
2022/03/22 01:12:51;;;;;;;14.70;12.50;;;;;;;7.62;40.42;103016.16;4999858;28;20137;-83
2022/03/22 01:15:25;;;;;;;16.30;11.90;;;;;;;7.52;40.98;103020.06;5004794;28;20109;-83
2022/03/22 01:17:54;;;;;;;14.25;11.95;;;;;;;7.77;40.91;103081.69;4993782;28;20134;-83
2022/03/22 01:20:25;;;;;;;15.75;12.70;;;;;;;7.73;41.14;103085.38;5007348;28;20106;-82
2022/03/22 01:22:54;;;;;;;18.33;12.90;;;;;;;7.69;41.44;103087.28;4986760;28;20083;-83
2022/03/22 01:25:23;;;;;;;17.00;12.43;;;;;;;7.56;41.06;103078.06;4975749;28;20344;-83
2022/03/22 01:27:50;;;;;;;14.18;12.10;;;;;;;7.62;41.18;103092.81;4974202;28;20528;-83
2022/03/22 01:30:21;;;;;;;15.00;12.77;;;;;;;6.99;41.86;102990.28;4970345;28;20082;-82
2022/03/22 01:32:50;;;;;;;13.07;11.77;;;;;;;6.90;41.77;102980.03;4971119;28;20142;-82
2022/03/22 01:35:25;;;;;;;15.00;13.15;;;;;;;7.39;41.97;103062.81;4969726;28;20051;-81
2022/03/22 01:37:55;;;;;;;15.73;12.90;;;;;;;6.82;42.15;102976.78;4971392;28;20085;-82
2022/03/22 01:40:25;;;;;;;16.45;11.43;;;;;;;7.34;41.57;103063.91;4969533;28;20532;-81
2022/03/22 01:42:53;;;;;;;14.02;12.52;;;;;;;7.36;42.78;103073.50;4969626;28;20498;-83
2022/03/22 01:45:20;;;;;;;13.45;11.52;;;;;;;6.87;42.50;102993.38;4970377;28;20626;-83
2022/03/22 01:47:47;;;;;;;16.25;12.77;;;;;;;7.30;42.98;103063.13;4970348;28;20050;-82
2022/03/22 01:50:16;;;;;;;13.98;12.30;;;;;;;7.32;43.17;103060.44;4972099;28;20055;-82
2022/03/22 01:52:44;;;;;;;18.05;12.77;;;;;;;7.28;43.14;103050.00;4970917;28;20382;-82
2022/03/22 01:55:13;;;;;;;13.27;12.00;;;;;;;7.25;43.16;103038.66;4971822;28;20055;-82
2022/03/22 01:57:41;;;;;;;13.27;11.93;;;;;;;7.43;42.64;103031.88;4970469;28;20053;-82
2022/03/22 02:00:14;;;;;;;16.08;13.07;;;;;;;7.34;43.25;103033.06;4970312;28;20065;-82
2022/03/22 02:08:16;;;;;;;15.60;13.13;;;;;;;7.45;42.70;103045.84;4969817;28;20453;-84
2022/03/22 02:10:44;;;;;;;15.73;13.00;;;;;;;7.42;42.44;103032.75;4969259;28;20055;-82
2022/03/22 02:13:11;;;;;;;16.45;12.82;;;;;;;7.35;43.42;103047.13;4968498;28;20145;-83
2022/03/22 02:15:38;;;;;;;16.42;13.13;;;;;;;7.23;43.05;103030.81;4968940;28;20078;-82
2022/03/22 02:18:04;;;;;;;13.68;12.30;;;;;;;7.41;43.70;103058.34;4974086;28;20078;-82
2022/03/22 02:20:32;;;;;;;17.27;12.75;;;;;;;7.34;43.78;103062.13;4954690;28;20043;-83
2022/03/22 02:23:44;;;;;;;15.95;13.25;;;;;;;7.39;42.59;103036.38;4988485;28;20057;-83
2022/03/22 02:26:11;;;;;;;14.63;12.55;;;;;;;6.95;43.12;102971.97;4982553;28;20472;-83
2022/03/22 02:28:37;;;;;;;18.15;13.38;;;;;;;7.20;43.38;103016.84;4988884;28;20046;-81
2022/03/22 02:31:04;;;;;;;14.38;12.88;;;;;;;7.47;43.09;103050.16;4989545;28;20133;-82
2022/03/22 02:33:30;;;;;;;16.25;13.52;;;;;;;7.37;43.70;103048.78;4984448;28;20043;-82
2022/03/22 02:35:57;;;;;;;14.85;13.25;;;;;;;7.33;43.90;103041.91;4969415;28;20142;-83
2022/03/22 02:38:24;;;;;;;14.13;12.63;;;;;;;7.04;44.73;103019.19;4970719;28;20081;-82
2022/03/22 02:40:50;;;;;;;15.63;13.57;;;;;;;7.12;43.92;103048.81;4968819;28;20134;-81
2022/03/22 02:43:17;;;;;;;14.15;12.32;;;;;;;7.07;44.76;103045.47;4967633;28;20138;-82
2022/03/22 02:45:44;;;;;;;15.88;14.27;;;;;;;6.91;43.31;103023.16;4967368;28;20074;-82
2022/03/22 02:48:11;;;;;;;16.52;13.13;;;;;;;7.25;42.47;103060.66;4966598;28;20271;-82
2022/03/22 02:50:38;;;;;;;15.98;13.45;;;;;;;6.82;42.49;102990.88;4971375;28;20041;-83
2022/03/22 02:53:05;;;;;;;14.65;12.90;;;;;;;6.89;42.26;103032.91;4987611;28;20050;-84
2022/03/22 02:55:32;;;;;;;14.23;12.75;;;;;;;6.23;42.53;102933.06;4988957;28;20081;-82
2022/03/22 02:57:58;;;;;;;15.07;12.52;;;;;;;7.02;42.50;103072.03;4987040;28;20132;-83
2022/03/22 03:00:26;;;;;;;16.25;13.48;;;;;;;6.91;42.09;103073.31;4986969;28;20069;-81
2022/03/22 03:02:54;;;;;;;15.20;12.68;;;;;;;6.78;42.49;103071.09;4947294;28;1245685;-81
2022/03/22 03:05:22;;;;;;;16.65;13.98;;;;;;;6.74;42.39;103060.69;4989909;28;20057;-82
2022/03/22 03:07:51;;;;;;;15.02;13.32;;;;;;;6.60;42.98;103066.41;4986934;28;20444;-82
2022/03/22 03:10:18;;;;;;;17.75;12.75;;;;;;;6.47;43.08;103039.56;4989879;28;20061;-82
2022/03/22 03:12:45;;;;;;;18.63;14.23;;;;;;;6.41;42.42;103043.28;4988342;28;20074;-81
2022/03/22 03:15:12;;;;;;;15.27;12.95;;;;;;;6.37;42.55;103027.59;4988484;28;20077;-80
2022/03/22 03:17:39;;;;;;;18.83;12.23;;;;;;;6.48;42.91;103067.72;4989048;28;20487;-81
2022/03/22 03:20:07;;;;;;;17.75;13.50;;;;;;;6.59;43.29;103085.81;4988795;28;20130;-81
2022/03/22 03:22:34;;;;;;;14.43;13.00;;;;;;;6.56;43.02;103086.78;4989701;28;20136;-81
2022/03/22 03:25:00;;;;;;;17.38;12.43;;;;;;;6.45;42.39;103078.34;4984328;28;20490;-81
2022/03/22 03:27:27;;;;;;;14.65;13.15;;;;;;;6.18;42.48;103022.91;4972703;28;20141;-81
2022/03/22 03:29:53;;;;;;;14.18;12.68;;;;;;;6.41;42.33;103071.47;4970673;28;20145;-82
2022/03/22 03:32:20;;;;;;;14.38;12.93;;;;;;;6.47;42.70;103100.28;4968474;28;20047;-82
2022/03/22 03:34:47;;;;;;;15.80;13.32;;;;;;;6.32;43.13;103082.28;4969115;28;20068;-82
2022/03/22 03:37:14;;;;;;;16.52;12.98;;;;;;;6.26;42.22;103056.09;4968473;28;20053;-82
2022/03/22 03:39:40;;;;;;;15.32;12.85;;;;;;;6.38;42.51;103088.25;4969686;28;20778;-82
2022/03/22 03:42:07;;;;;;;13.57;11.77;;;;;;;6.35;42.42;103093.59;4970350;28;20230;-83
2022/03/22 03:47:25;;;;;;;14.82;12.35;;;;;;;6.14;42.79;103083.72;4981900;28;20263;-82
2022/03/22 03:49:59;;;;;;;16.45;12.70;;;;;;;6.04;43.13;103080.50;4986722;28;20051;-84
2022/03/22 03:52:29;;;;;;;14.18;12.43;;;;;;;6.03;43.19;103080.56;4989928;28;20057;-82
2022/03/22 03:54:57;;;;;;;15.00;12.85;;;;;;;6.25;42.90;103112.41;4982411;28;20146;-82
2022/03/22 03:57:25;;;;;;;14.63;12.35;;;;;;;5.93;42.33;103029.84;4969288;28;20066;-80
2022/03/22 03:59:53;;;;;;;16.33;12.25;;;;;;;6.19;42.12;103076.56;4970134;28;20055;-82
2022/03/22 04:02:19;;;;;;;14.70;11.63;;;;;;;6.37;42.30;103112.88;4984528;28;20055;-82
2022/03/22 04:04:51;;;;;;;12.15;10.95;;;;;;;6.30;42.22;103099.94;4969012;28;20050;-81
2022/03/22 04:07:21;;;;;;;14.45;12.93;;;;;;;6.32;41.93;103104.25;4971705;28;20070;-82
2022/03/22 04:09:48;;;;;;;14.87;12.13;;;;;;;5.84;42.07;103040.66;4983653;28;20078;-81
2022/03/22 04:12:15;;;;;;;14.33;12.57;;;;;;;5.91;42.19;103060.66;4969760;28;20051;-82
2022/03/22 04:14:42;;;;;;;15.40;12.93;;;;;;;5.72;42.11;103023.44;4970836;28;20049;-80
2022/03/22 04:17:09;;;;;;;13.50;12.20;;;;;;;6.21;42.17;103101.06;4988965;28;20080;-82
2022/03/22 04:19:36;;;;;;;15.97;13.40;;;;;;;6.26;41.67;103101.78;4986952;28;20053;-82
2022/03/22 04:22:04;;;;;;;16.53;12.43;;;;;;;6.22;42.09;103102.81;4983740;28;20096;-81
2022/03/22 04:24:31;;;;;;;17.87;12.53;;;;;;;5.32;41.99;102956.13;4973688;28;20591;-81
2022/03/22 04:32:41;;;;;;;14.50;13.00;;;;;;;6.04;42.00;103092.81;4984062;28;20132;-81
2022/03/22 04:32:42;;;;;;;14.50;13.00;;;;;;;5.54;42.00;103020.44;4977786;28;20060;-82
2022/03/22 04:35:19;;;;;;;13.53;11.57;;;;;;;5.84;42.87;103080.19;4977370;28;20062;-82
2022/03/22 04:37:49;;;;;;;13.47;12.03;;;;;;;5.69;42.57;103068.34;4968173;28;20055;-81
2022/03/22 04:40:16;;;;;;;13.57;12.27;;;;;;;5.92;42.68;103104.56;4985528;28;20066;-82
2022/03/22 04:42:43;;;;;;;15.47;12.53;;;;;;;5.65;42.95;103049.09;4987928;28;20444;-81
2022/03/22 04:45:10;;;;;;;15.10;10.97;;;;;;;5.91;43.40;103119.50;4987288;28;20058;-82
2022/03/22 04:47:37;;;;;;;13.83;12.00;;;;;;;5.93;42.80;103106.31;4979517;28;20085;-82
2022/03/22 04:50:08;;;;;;;14.30;12.20;;;;;;;5.78;43.24;103103.19;4967541;28;20081;-82
2022/03/22 04:58:05;;;;;;;14.37;12.70;;;;;;;5.92;43.10;103123.00;4968827;28;20085;-81
2022/03/22 05:00:34;;;;;;;15.53;11.83;;;;;;;5.86;42.85;103115.28;4967515;28;20133;-82
2022/03/22 05:03:02;;;;;;;16.17;12.93;;;;;;;5.72;42.90;103092.81;4966760;28;20058;-82
2022/03/22 05:08:14;;;;;;;22.37;12.73;;;;;;;5.29;43.02;103036.09;4976405;28;20072;-82
2022/03/22 05:10:41;;;;;;;15.83;13.73;;;;;;;5.84;43.08;103132.94;4986715;28;20050;-81
2022/03/22 05:13:08;;;;;;;14.47;12.63;;;;;;;5.68;43.38;103107.00;4973502;28;20043;-82
2022/03/22 05:15:34;;;;;;;17.17;13.03;;;;;;;5.72;42.94;103107.78;4968632;28;20142;-82
2022/03/22 05:18:01;;;;;;;18.10;13.25;;;;;;;5.84;43.04;103127.66;4983047;28;20086;-82
2022/03/22 05:20:28;;;;;;;14.73;13.23;;;;;;;5.81;42.82;103122.47;4970641;28;20229;-82
2022/03/22 05:22:55;;;;;;;14.87;13.10;;;;;;;5.13;42.68;103003.19;4986635;28;20051;-82
2022/03/22 05:25:21;;;;;;;16.33;13.27;;;;;;;5.43;43.07;103048.00;4987057;28;20081;-82
2022/03/22 05:27:48;;;;;;;17.07;13.03;;;;;;;5.92;43.06;103141.47;4991494;28;20056;-84
2022/03/22 05:30:15;;;;;;;19.67;13.00;;;;;;;5.94;42.73;103155.50;4993216;28;20077;-82
2022/03/22 05:32:41;;;;;;;15.63;13.60;;;;;;;5.84;42.84;103122.38;4988503;28;20310;-81
2022/03/22 05:35:09;;;;;;;15.30;12.33;;;;;;;6.06;42.27;103159.56;4986434;28;20104;-81
2022/03/22 05:37:35;;;;;;;17.33;14.13;;;;;;;5.97;42.33;103152.78;4982738;28;20043;-83
2022/03/22 05:40:03;;;;;;;16.33;14.20;;;;;;;5.09;42.95;103006.78;4967283;28;20324;-81
2022/03/22 05:42:30;;;;;;;17.03;13.57;;;;;;;6.04;42.84;103172.78;4967031;28;20065;-81
2022/03/22 05:44:56;;;;;;;15.17;12.93;;;;;;;5.89;42.59;103139.78;4966837;28;20471;-83
2022/03/22 05:47:23;;;;;;;15.47;13.90;;;;;;;5.88;42.70;103139.84;4966503;28;20346;-83
2022/03/22 05:49:49;;;;;;;16.37;14.27;;;;;;;6.13;42.67;103171.66;4965439;28;20061;-83
2022/03/22 05:52:16;;;;;;;18.50;13.70;;;;;;;5.98;42.56;103142.19;4967336;28;20082;-83
2022/03/22 05:54:43;;;;;;;15.87;13.87;;;;;;;6.09;42.55;103159.47;4982114;28;20161;-82
2022/03/22 05:57:10;;;;;;;18.90;14.77;;;;;;;5.82;42.75;103116.28;4962727;28;20051;-83
2022/03/22 05:59:36;;;;;;;16.13;13.87;;;;;;;6.07;42.86;103178.00;4955874;28;20074;-83
2022/03/22 06:02:04;;;;;;;15.55;13.93;;;;;;;6.09;42.70;103154.19;4988140;28;20292;-84
2022/03/22 06:04:31;;;;;;;21.10;15.03;;;;;;;6.14;42.68;103171.63;4990040;28;20054;-82
2022/03/22 06:07:00;;;;;;;17.10;14.27;;;;;;;6.17;42.75;103175.97;4988133;28;20074;-83
2022/03/22 06:09:27;;;;;;;17.00;13.50;;;;;;;6.27;42.92;103179.19;4972460;28;20134;-83
2022/03/22 06:11:55;;;;;;;18.03;15.43;;;;;;;6.06;42.99;103144.59;4968752;28;20061;-83
2022/03/22 06:14:21;;;;;;;18.03;16.03;;;;;;;5.57;42.20;103046.69;4969263;28;20133;-82
2022/03/22 06:16:48;;;;;;;17.83;15.13;;;;;;;6.34;41.81;103160.47;4968985;28;20464;-82
2022/03/22 06:19:15;;;;;;;19.40;15.02;;;;;;;6.50;41.99;103187.25;4968438;28;20147;-82
2022/03/22 06:21:41;;;;;;;20.60;16.23;;;;;;;6.52;41.59;103174.88;4967890;28;20564;-83
2022/03/22 06:24:08;;;;;;;17.65;15.07;;;;;;;6.55;42.15;103176.56;4968663;28;20047;-82
2022/03/22 06:26:35;;;;;;;16.75;14.73;;;;;;;6.72;41.42;103197.16;4983368;28;20459;-81
2022/03/22 06:29:02;;;;;;;23.80;17.15;;;;;;;6.79;41.40;103199.53;4968284;28;20093;-82
2022/03/22 06:31:34;;;;;;;16.30;14.65;;;;;;;6.68;41.68;103185.84;4968091;28;20402;-82
2022/03/22 06:34:01;;;;;;;;;;;;;;;6.76;41.52;103199.66;4968399;28;20077;-82
2022/03/22 06:36:28;;;;;;;17.50;15.40;;;;;;;6.79;41.44;103193.41;4968516;28;20013;-82
2022/03/22 06:38:55;;;;;;;17.42;15.25;;;;;;;6.94;40.99;103207.91;4967566;28;20054;-82
2022/03/22 06:41:21;;;;;;;17.92;15.27;;;;;;;6.83;41.56;103205.63;4967636;28;20466;-82
2022/03/22 06:43:48;;;;;;;20.25;15.55;;;;;;;6.86;41.06;103189.66;4967212;28;20150;-82
2022/03/22 06:46:15;;;;;;;17.25;15.50;;;;;;;6.60;41.30;103135.94;4967422;28;20062;-82
2022/03/22 06:48:42;;;;;;;19.13;16.60;;;;;;;6.95;41.29;103199.94;4966933;28;20416;-82
2022/03/22 06:51:08;;;;;;;22.58;16.92;;;;;;;7.08;41.45;103210.97;4968511;28;20049;-82
2022/03/22 06:53:35;;;;;;;18.35;16.40;;;;;;;6.70;41.28;103140.91;4968035;28;20047;-81
2022/03/22 06:56:01;;;;;;;22.02;17.25;;;;;;;7.13;40.72;103202.88;4968613;28;20126;-81
2022/03/22 06:58:30;;;;;;;23.45;16.67;;;;;;;7.03;41.59;103175.91;4966682;28;20169;-81
2022/03/22 07:00:58;;;;;;;20.52;17.70;;;;;;;7.32;41.13;103213.72;4972153;28;20047;-81
2022/03/22 07:03:25;;;;;;;18.95;16.17;;;;;;;7.10;40.86;103172.16;4929008;28;20125;-81
2022/03/22 07:05:52;;;;;;;20.05;17.05;;;;;;;7.41;40.46;103211.63;4969269;28;20428;-81
2022/03/22 07:08:18;;;;;;;17.30;15.43;;;;;;;7.27;40.81;103179.50;4965228;28;20077;-81
2022/03/22 07:11:47;;;;;;;19.58;16.95;;;;;;;7.49;40.65;103196.34;4960260;28;20130;-81
2022/03/22 07:13:32;;;;;;;18.65;16.65;;;;;;;7.52;40.60;103210.38;4983080;28;20133;-82
2022/03/22 07:16:00;;;;;;;20.40;16.70;;;;;;;7.61;40.36;103208.28;4969473;28;20051;-81
2022/03/22 07:18:27;;;;;;;19.52;16.15;;;;;;;7.62;40.32;103206.50;4969895;28;20047;-82
2022/03/22 07:20:54;;;;;;;18.75;16.38;;;;;;;7.83;39.91;103220.75;4968249;28;20383;-80
2022/03/22 07:23:21;;;;;;;19.70;16.52;;;;;;;7.73;39.96;103214.94;4968142;28;20071;-80
2022/03/22 07:25:48;;;;;;;18.92;16.67;;;;;;;7.58;39.88;103199.63;4967803;28;20078;-79
2022/03/22 07:28:15;;;;;;;19.42;16.40;;;;;;;7.56;39.60;103197.00;4969669;28;20105;-80
2022/03/22 07:30:41;;;;;;;18.80;16.95;;;;;;;7.82;39.96;103222.53;4969807;28;20054;-82
2022/03/22 07:33:08;;;;;;;20.13;16.42;;;;;;;7.82;39.97;103224.34;4969896;28;20497;-82
2022/03/22 07:35:35;;;;;;;21.83;15.85;;;;;;;7.72;40.27;103210.56;4967722;28;20055;-81
2022/03/22 07:38:01;;;;;;;20.50;17.60;;;;;;;7.83;40.06;103231.34;4984387;28;20082;-81
2022/03/22 07:40:28;;;;;;;19.35;15.77;;;;;;;7.87;40.02;103219.75;4968290;28;20134;-80
2022/03/22 07:42:55;;;;;;;20.85;17.17;;;;;;;7.99;39.82;103229.03;4968402;28;20163;-81
2022/03/22 07:45:22;;;;;;;17.55;15.77;;;;;;;7.87;40.45;103223.25;4967904;28;20156;-81
2022/03/22 07:47:49;;;;;;;19.95;17.52;;;;;;;8.00;40.19;103228.09;4961904;28;20077;-81
2022/03/22 07:53:05;;;;;;;24.77;17.55;;;;;;;8.06;40.27;103214.66;4969548;28;20047;-80
2022/03/22 07:55:38;;;;;;;20.40;17.52;;;;;;;8.03;40.42;103226.19;4954665;28;20050;-76
2022/03/22 07:58:05;;;;;;;21.00;17.48;;;;;;;7.78;40.31;103186.53;4950035;28;20154;-85
2022/03/22 08:00:40;;;;;;;20.08;17.35;;;;;;;7.89;40.78;103194.97;4982697;28;20081;-85
2022/03/22 08:03:12;;;;;;;19.60;17.55;;;;;;;8.28;40.18;103220.00;4968468;28;20134;-81
2022/03/22 08:05:41;;;;;;;19.90;17.67;;;;;;;8.22;40.21;103218.44;4971970;28;20051;-80
2022/03/22 08:08:08;;;;;;;19.95;17.83;;;;;;;8.19;39.86;103199.19;4971355;28;20436;-81
2022/03/22 08:10:55;;;;;;;20.10;16.73;;;;;;;8.16;39.77;103197.50;4970377;28;20046;-81
2022/03/22 08:13:21;;;;;;;22.85;17.70;;;;;;;8.43;39.62;103221.25;4971380;28;20055;-81
2022/03/22 08:15:48;;;;;;;20.63;18.02;;;;;;;8.55;39.83;103228.72;4971184;28;20133;-81
2022/03/22 08:18:16;;;;;;;20.50;18.35;;;;;;;8.42;39.82;103203.63;4972588;28;20047;-87
2022/03/22 08:20:44;;;;;;;21.60;18.40;;;;;;;8.64;40.02;103232.78;4968967;28;20082;-82
2022/03/22 08:23:11;;;;;;;23.83;19.33;;;;;;;8.23;40.15;103169.91;4966938;28;20089;-83
2022/03/22 08:25:46;;;;;;;19.17;17.10;;;;;;;8.83;39.78;103227.63;4967560;28;20142;-79
2022/03/22 08:28:13;;;;;;;23.58;17.75;;;;;;;9.14;43.32;103236.06;4968543;28;20043;-79
2022/03/22 08:30:42;;;;;;;20.88;16.52;;;;;;;9.43;49.88;103218.09;4967983;28;20160;-79
2022/03/22 08:33:10;;;;;;;18.73;16.77;;;;;;;9.83;44.60;103235.81;4967518;28;20061;-79
2022/03/22 08:35:41;;;;;;;20.42;18.25;;;;;;;10.01;43.75;103220.84;4965574;28;20053;-80
2022/03/22 08:38:10;;;;;;;20.40;18.13;;;;;;;10.09;38.68;103231.09;4966675;28;20078;-80
2022/03/22 08:40:39;;;;;;;19.02;16.98;;;;;;;10.09;40.84;103243.53;4967048;28;20046;-78
2022/03/22 08:43:08;;;;;;;19.10;17.05;;;;;;;10.06;43.33;103225.94;4967827;28;20402;-80
2022/03/22 08:45:36;;;;;;;16.90;12.18;;;;;;;10.38;46.93;103231.63;4968158;28;20500;-78
2022/03/22 08:48:09;;;;;;;20.67;17.65;;;;;;;10.18;40.11;103187.38;4966745;28;20093;-77
2022/03/22 08:50:38;;;;;;;18.98;16.08;;;;;;;10.41;39.41;103234.13;4968037;28;20537;-79
2022/03/22 08:53:05;;;;;;;20.60;17.30;;;;;;;10.30;39.29;103218.69;4982987;28;20560;-78
2022/03/22 08:55:32;;;;;;;18.45;16.58;;;;;;;10.34;39.11;103232.69;4966658;28;20182;-78
2022/03/22 08:58:05;;;;;;;20.92;16.67;;;;;;;10.40;41.13;103220.00;4966514;28;20070;-78
2022/03/22 09:00:36;;;;;;;22.38;17.63;;;;;;;10.39;40.62;103220.94;4967283;28;20055;-79
2022/03/22 09:03:05;;;;;;;19.55;17.40;;;;;;;10.54;40.00;103231.78;4966277;28;20063;-80
2022/03/22 09:08:18;;;;;;;20.48;18.33;;;;;;;10.60;38.45;103220.84;4968447;28;20142;-80
2022/03/22 09:10:46;;;;;;;20.80;17.75;;;;;;;10.53;39.48;103204.31;4967143;28;20142;-81
2022/03/22 09:13:13;;;;;;;21.17;18.15;;;;;;;10.61;37.79;103188.06;4966960;28;20051;-82
2022/03/22 09:15:40;;;;;;;20.92;18.55;;;;;;;10.96;37.30;103230.66;4967877;28;20427;-78
2022/03/22 09:18:15;;;;;;;18.98;15.13;;;;;;;10.78;36.59;103219.97;4966536;28;20054;-77
2022/03/22 09:20:43;;;;;;;18.90;16.85;;;;;;;10.74;34.20;103220.19;4966511;28;20146;-80
2022/03/22 09:23:11;;;;;;;17.42;15.63;;;;;;;10.73;34.45;103221.13;4966559;28;20057;-78
2022/03/22 09:25:43;;;;;;;16.70;15.10;;;;;;;10.74;34.27;103231.69;4968035;28;20442;-80
2022/03/22 09:28:11;;;;;;;18.88;16.35;;;;;;;10.80;34.15;103222.53;4966743;28;20106;-79
2022/03/22 09:30:38;;;;;;;14.57;13.02;;;;;;;10.70;31.97;103211.50;4968326;28;20129;-80
2022/03/22 09:33:07;;;;;;;16.42;14.10;;;;;;;10.48;32.69;103148.81;4968000;28;20086;-80
2022/03/22 09:35:35;;;;;;;15.43;13.80;;;;;;;11.30;32.27;103228.03;4965697;28;20061;-78
2022/03/22 09:38:03;;;;;;;16.95;14.93;;;;;;;11.10;32.78;103188.31;4956874;28;20417;-80
2022/03/22 09:40:30;;;;;;;18.40;14.93;;;;;;;11.00;31.88;103128.56;4975379;28;20106;-80
2022/03/22 09:42:57;;;;;;;15.82;14.30;;;;;;;11.49;31.51;103187.22;4964375;28;20522;-81
2022/03/22 09:45:26;;;;;;;15.77;14.18;;;;;;;11.81;33.87;103211.28;4970145;28;20051;-81
2022/03/22 09:47:54;;;;;;;18.55;13.52;;;;;;;12.09;35.99;103214.22;4952577;28;20086;-79
2022/03/22 09:51:44;;;;;;;14.85;13.30;;;;;;;12.60;36.46;103222.97;4951055;29;20324;-81
2022/03/22 09:53:12;;;;;;;14.02;12.60;;;;;;;12.38;33.45;103179.81;4953352;28;20052;-79
2022/03/22 09:55:40;;;;;;;16.38;13.45;;;;;;;12.75;32.72;103212.38;4965103;28;20588;-80
2022/03/22 09:58:07;;;;;;;15.10;13.50;;;;;;;12.85;33.29;103215.38;4971377;28;20057;-78
2022/03/22 10:00:34;;;;;;;14.20;12.90;;;;;;;13.15;38.80;103213.59;4971155;28;20134;-76
2022/03/22 10:03:01;;;;;;;14.02;12.63;;;;;;;13.15;30.00;103192.25;4969199;28;20066;-82
2022/03/22 10:05:29;;;;;;;14.02;12.25;;;;;;;13.06;29.20;103123.50;4968453;28;20054;-79
2022/03/22 10:08:07;;;;;;;13.32;11.98;;;;;;;13.59;31.81;103195.94;4971026;28;20066;-79
2022/03/22 10:10:35;;;;;;;21.05;12.40;;;;;;;13.54;30.24;103200.69;4972279;28;20169;-79
2022/03/22 10:13:04;;;;;;;12.40;11.15;;;;;;;13.80;32.23;103205.31;4954878;28;20099;-79
2022/03/22 10:15:37;;;;;;;13.48;12.23;;;;;;;13.66;30.52;103183.94;4950917;29;20146;-78
2022/03/22 10:18:09;;;;;;;14.57;11.80;;;;;;;13.74;34.61;103179.00;4951457;29;20051;-79
2022/03/22 10:20:38;;;;;;;12.63;10.57;;;;;;;13.61;38.32;103087.28;4952965;28;20051;-79
2022/03/22 10:23:09;;;;;;;11.95;10.75;;;;;;;14.25;35.56;103174.00;4987254;28;20102;-80
2022/03/22 10:28:19;;;;;;;11.57;10.38;;;;;;;14.47;30.26;103199.38;4955200;29;20066;-80
2022/03/22 10:30:56;;;;;;;10.43;9.32;;;;;;;14.50;25.74;103194.66;4944010;28;20457;-78
2022/03/22 10:33:22;;;;;;;10.65;9.65;;;;;;;14.67;33.14;103190.06;4939443;29;20212;-79
2022/03/22 10:35:50;;;;;;;13.65;10.57;;;;;;;14.46;29.35;103162.88;4962400;29;20054;-79
2022/03/22 10:38:19;;;;;;;15.55;10.38;;;;;;;14.70;30.53;103196.06;4969746;29;20082;-79
2022/03/22 10:40:48;;;;;;;11.45;10.35;;;;;;;14.69;28.26;103178.31;4964908;29;20180;-78
2022/03/22 10:43:26;;;;;;;11.70;10.45;;;;;;;14.56;26.41;103147.13;4952664;29;20154;-79
2022/03/22 10:46:04;;;;;;;11.80;10.15;;;;;;;14.75;28.44;103144.97;4946996;29;20056;-78
2022/03/22 10:48:37;;;;;;;11.73;10.52;;;;;;;14.55;29.24;103068.78;4917017;29;20067;-79
2022/03/22 10:51:06;;;;;;;10.68;9.68;;;;;;;15.42;26.85;103184.19;4916769;29;20521;-80
2022/03/22 10:53:34;;;;;;;11.75;10.65;;;;;;;15.23;25.85;103181.91;4916762;29;20110;-79
2022/03/22 10:56:03;;;;;;;11.90;10.70;;;;;;;15.18;28.02;103167.00;4916866;29;20167;-80
2022/03/22 10:58:31;;;;;;;12.75;11.10;;;;;;;15.41;27.00;103191.34;4948533;29;20098;-78
2022/03/22 11:01:00;;;;;;;12.73;11.25;;;;;;;15.54;27.67;103181.53;4952975;28;20074;-78
2022/03/22 11:03:32;;;;;;;15.10;11.35;;;;;;;15.26;25.65;103114.78;4954237;28;20055;-80
2022/03/22 11:06:04;;;;;;;12.18;9.95;;;;;;;15.48;26.31;103155.16;4954338;28;20063;-80
2022/03/22 11:08:33;;;;;;;11.80;10.60;;;;;;;15.64;26.75;103176.38;4953388;29;20062;-79
2022/03/22 11:11:02;;;;;;;11.48;10.35;;;;;;;15.83;27.86;103151.88;4957371;28;20257;-79
2022/03/22 11:13:33;;;;;;;11.13;9.93;;;;;;;15.99;28.07;103171.22;4964004;28;20457;-79
2022/03/22 11:16:02;;;;;;;13.60;11.75;;;;;;;15.93;27.05;103155.63;4973431;28;20058;-78
2022/03/22 11:18:30;;;;;;;12.40;10.02;;;;;;;16.28;30.79;103165.59;4969737;28;20355;-80
2022/03/22 11:21:02;;;;;;;13.32;11.93;;;;;;;16.13;25.98;103158.69;4920837;28;20039;-80
2022/03/22 11:23:33;;;;;;;14.93;9.38;;;;;;;16.22;31.49;103133.91;4971467;28;20086;-78
2022/03/22 11:26:27;;;;;;;13.55;10.77;;;;;;;16.31;26.26;103157.38;4957716;28;20142;-80
2022/03/22 11:28:54;;;;;;;12.63;11.32;;;;;;;16.42;27.00;103157.41;4986924;28;20047;-79
2022/03/22 11:31:26;;;;;;;14.63;11.75;;;;;;;16.34;27.10;103149.09;4987015;28;20609;-79
2022/03/22 11:34:12;;;;;;;;;;;;;;;16.62;29.83;103155.09;4972833;28;20138;-79
2022/03/22 11:36:40;;;;;;;11.68;10.55;;;;;;;16.67;28.38;103151.09;4972568;28;19929;-78
2022/03/22 11:39:07;;;;;;;12.32;10.95;;;;;;;16.71;26.84;103143.66;4987702;28;20108;-79
2022/03/22 11:44:36;;;;;;;14.23;11.30;;;;;;;16.24;26.09;103070.31;4971595;28;20120;-79
2022/03/22 11:47:05;;;;;;;10.68;9.68;;;;;;;16.93;32.67;103117.94;4971989;28;20051;-80
2022/03/22 11:50:00;;;;;;;9.20;8.30;;;;;;;16.98;35.54;103123.81;4912735;28;20091;-79
2022/03/22 11:52:33;;;;;;;8.80;7.90;;;;;;;16.52;34.58;103076.31;4898348;28;20583;-80
2022/03/22 11:55:05;;;;;;;8.40;7.60;;;;;;;16.96;35.58;103139.16;4925097;28;20078;-79